Time;durP1;ratioP1;P1;durP2;ratioP2;P2;SDS_P1;SDS_P2;PMS_P1;PMS_P2;Temp;Humidity;BMP_temperature;BMP_pressure;BME280_temperature;BME280_humidity;BME280_pressure;Samples;Min_cycle;Max_cycle;Signal;HPM_P1;HPM_P2
2023/05/06 00:00:54;;;;;;;1.00;0.40;;;;;;;0.79;54.72;103286.47;4988195;28;20058;-75
2023/05/06 00:03:21;;;;;;;0.70;0.40;;;;;;;0.78;54.34;103284.72;4991719;28;20061;-75
2023/05/06 00:05:50;;;;;;;2.35;0.40;;;;;;;0.74;54.79;103280.16;4990447;28;20105;-75
2023/05/06 00:08:16;;;;;;;2.38;0.40;;;;;;;0.72;54.05;103281.75;4986397;28;20066;-74
2023/05/06 00:10:43;;;;;;;1.58;0.30;;;;;;;0.72;54.41;103284.34;4991491;28;20054;-74
2023/05/06 00:13:10;;;;;;;0.60;0.40;;;;;;;0.70;54.47;103285.91;4988228;28;20418;-74
2023/05/06 00:15:37;;;;;;;3.50;0.50;;;;;;;0.66;55.17;103292.56;4988652;28;20501;-74
2023/05/06 00:18:04;;;;;;;1.33;0.30;;;;;;;0.65;54.98;103289.09;4989784;28;20053;-75
2023/05/06 00:20:32;;;;;;;0.40;0.20;;;;;;;0.63;54.44;103298.41;4986179;28;20430;-74
2023/05/06 00:23:00;;;;;;;1.02;0.40;;;;;;;0.62;54.74;103293.13;4991226;28;20659;-74
2023/05/06 00:25:27;;;;;;;0.80;0.40;;;;;;;0.60;55.04;103298.22;4991551;28;20399;-74
2023/05/06 00:27:54;;;;;;;0.88;0.30;;;;;;;0.58;55.14;103301.47;4989419;28;20054;-74
2023/05/06 00:30:21;;;;;;;0.57;0.40;;;;;;;0.55;54.97;103297.03;4990968;28;20049;-74
2023/05/06 00:32:47;;;;;;;1.05;0.30;;;;;;;0.55;55.47;103307.31;4991804;28;20046;-74
2023/05/06 00:35:14;;;;;;;3.33;0.40;;;;;;;0.50;55.46;103303.56;4988622;28;20694;-74
2023/05/06 00:37:45;;;;;;;0.50;0.30;;;;;;;0.51;55.68;103299.28;4990175;28;20054;-75
2023/05/06 00:40:14;;;;;;;3.05;0.38;;;;;;;0.47;55.11;103298.22;4987932;28;20054;-75
2023/05/06 00:42:41;;;;;;;0.70;0.40;;;;;;;0.48;55.48;103306.81;4988901;28;20042;-74
2023/05/06 00:45:09;;;;;;;0.70;0.30;;;;;;;0.45;55.95;103307.50;4990245;28;20046;-75
2023/05/06 00:47:35;;;;;;;2.50;0.45;;;;;;;0.44;55.57;103308.31;4984071;28;20057;-74
2023/05/06 00:50:03;;;;;;;2.00;0.47;;;;;;;0.41;55.90;103311.56;4986858;28;20046;-74
2023/05/06 00:52:30;;;;;;;1.27;0.35;;;;;;;0.40;56.21;103307.22;4993175;28;20392;-74
2023/05/06 00:54:57;;;;;;;0.63;0.32;;;;;;;0.38;55.63;103307.94;4988052;28;20053;-74
2023/05/06 00:57:26;;;;;;;1.73;0.40;;;;;;;0.37;55.67;103312.19;4990000;28;20069;-74
2023/05/06 00:59:53;;;;;;;0.82;0.40;;;;;;;0.35;56.40;103311.19;4987981;28;20137;-75
2023/05/06 01:02:19;;;;;;;0.30;0.22;;;;;;;0.32;56.19;103307.53;4989817;28;20471;-74
2023/05/06 01:04:47;;;;;;;0.50;0.35;;;;;;;0.31;56.25;103316.03;4984794;28;20062;-75
2023/05/06 01:07:26;;;;;;;1.58;0.40;;;;;;;0.28;55.98;103311.56;4986519;28;20407;-74
2023/05/06 01:10:02;;;;;;;0.43;0.30;;;;;;;0.27;56.37;103314.94;4988613;28;20069;-75
2023/05/06 01:12:37;;;;;;;2.15;0.35;;;;;;;0.27;56.65;103308.91;4989025;28;20046;-74
2023/05/06 01:15:09;;;;;;;2.33;0.40;;;;;;;0.24;56.63;103313.88;4985664;28;20494;-74
2023/05/06 01:17:39;;;;;;;2.97;0.30;;;;;;;0.23;56.63;103315.56;4983505;28;20042;-75
2023/05/06 01:20:10;;;;;;;2.90;0.30;;;;;;;0.21;56.58;103312.88;4985605;28;20046;-74
2023/05/06 01:22:38;;;;;;;0.68;0.50;;;;;;;0.19;56.31;103317.00;4969727;28;20077;-73
2023/05/06 01:25:07;;;;;;;1.55;0.40;;;;;;;0.17;56.22;103318.63;4960282;28;20144;-75
2023/05/06 01:27:34;;;;;;;2.40;0.30;;;;;;;0.17;56.99;103318.63;4961782;28;20511;-74
2023/05/06 01:30:01;;;;;;;0.68;0.40;;;;;;;0.15;56.67;103312.47;4961708;28;20061;-75
2023/05/06 01:32:38;;;;;;;1.90;0.47;;;;;;;0.14;56.52;103321.00;4962469;28;20100;-74
2023/05/06 01:35:12;;;;;;;1.67;0.40;;;;;;;0.13;57.01;103319.19;4955168;28;20053;-74
2023/05/06 01:37:45;;;;;;;1.17;0.40;;;;;;;0.11;56.99;103314.72;4961083;28;20514;-75
2023/05/06 01:40:16;;;;;;;2.60;0.40;;;;;;;0.10;56.53;103318.09;4962631;28;20062;-74
2023/05/06 01:42:47;;;;;;;1.85;0.40;;;;;;;0.08;56.92;103323.13;4958097;28;20047;-75
2023/05/06 01:45:16;;;;;;;1.02;0.40;;;;;;;0.04;57.44;103318.59;4961655;28;20058;-74
2023/05/06 01:47:44;;;;;;;1.08;0.40;;;;;;;0.06;56.96;103323.81;4960973;28;20059;-74
2023/05/06 01:50:11;;;;;;;2.45;0.40;;;;;;;0.05;57.12;103327.19;4962407;28;20051;-74
2023/05/06 01:52:38;;;;;;;1.45;0.40;;;;;;;0.03;57.12;103319.41;4961472;28;20054;-74
2023/05/06 01:55:06;;;;;;;1.27;0.40;;;;;;;0.02;57.09;103317.59;4960100;28;20060;-74
2023/05/06 01:57:34;;;;;;;1.88;0.40;;;;;;;0.03;57.11;103324.53;4979800;28;20057;-74
2023/05/06 02:00:01;;;;;;;5.95;0.60;;;;;;;0.01;57.27;103318.41;4988557;28;20061;-74
2023/05/06 02:02:28;;;;;;;0.70;0.40;;;;;;;-0.01;57.49;103322.53;4988679;28;20050;-74
2023/05/06 02:04:55;;;;;;;0.88;0.40;;;;;;;-0.02;58.10;103318.19;4984474;28;20054;-74
2023/05/06 02:07:22;;;;;;;0.80;0.43;;;;;;;-0.05;56.95;103315.44;4985728;28;20054;-74
2023/05/06 02:09:48;;;;;;;1.60;0.40;;;;;;;-0.05;57.43;103315.44;4989286;28;20590;-74
2023/05/06 02:12:15;;;;;;;1.05;0.40;;;;;;;-0.06;57.51;103318.75;4989556;28;20049;-73
2023/05/06 02:14:44;;;;;;;1.48;0.40;;;;;;;-0.07;58.37;103322.13;4989767;28;20050;-74
2023/05/06 02:17:10;;;;;;;1.13;0.40;;;;;;;-0.08;58.33;103320.38;4983699;28;20672;-72
2023/05/06 02:19:37;;;;;;;0.60;0.40;;;;;;;-0.11;57.74;103312.47;4989330;28;20061;-73
2023/05/06 02:22:04;;;;;;;1.20;0.40;;;;;;;-0.11;57.45;103315.91;4984254;28;20417;-73
2023/05/06 02:24:31;;;;;;;1.70;0.52;;;;;;;-0.12;58.20;103310.66;4989486;28;20049;-73
2023/05/06 02:26:58;;;;;;;1.60;0.35;;;;;;;-0.12;58.09;103319.25;4987720;28;20066;-73
2023/05/06 02:29:25;;;;;;;0.95;0.60;;;;;;;-0.13;57.63;103311.47;4987235;28;20803;-73
2023/05/06 02:31:53;;;;;;;1.77;0.50;;;;;;;-0.13;58.10;103316.59;4988013;28;20054;-73
2023/05/06 02:34:20;;;;;;;4.45;0.65;;;;;;;-0.15;58.21;103315.59;4989493;28;20050;-73
2023/05/06 02:36:46;;;;;;;7.03;0.50;;;;;;;-0.19;58.36;103311.06;4986518;28;20490;-72
2023/05/06 02:39:13;;;;;;;3.75;0.40;;;;;;;-0.17;57.51;103312.03;4988338;28;20058;-73
2023/05/06 02:41:41;;;;;;;2.05;0.40;;;;;;;-0.18;57.96;103317.97;4987474;28;20809;-73
2023/05/06 02:44:08;;;;;;;1.55;0.52;;;;;;;-0.19;58.47;103316.19;4986372;28;20049;-72
2023/05/06 02:46:35;;;;;;;5.70;0.47;;;;;;;-0.21;58.24;103308.38;4988031;28;20050;-73
2023/05/06 02:49:03;;;;;;;3.75;0.70;;;;;;;-0.20;58.22;103316.97;4986689;28;20039;-73
2023/05/06 02:51:30;;;;;;;2.13;0.52;;;;;;;-0.21;58.80;103315.19;4989801;28;20046;-70
2023/05/06 02:53:56;;;;;;;0.90;0.50;;;;;;;-0.23;58.36;103320.22;4988308;28;20598;-70
2023/05/06 02:56:23;;;;;;;1.85;0.60;;;;;;;-0.22;58.58;103318.56;4987084;28;20046;-69
2023/05/06 02:58:50;;;;;;;6.05;0.55;;;;;;;-0.24;58.51;103316.75;4987059;28;20491;-70
2023/05/06 03:01:17;;;;;;;1.90;0.52;;;;;;;-0.24;59.23;103318.44;4986430;28;20538;-70
2023/05/06 03:03:44;;;;;;;0.82;0.50;;;;;;;-0.24;59.29;103318.44;4987781;28;20047;-69
2023/05/06 03:06:12;;;;;;;4.35;0.65;;;;;;;-0.25;59.26;103317.56;4992153;28;20578;-69
2023/05/06 03:08:39;;;;;;;0.90;0.60;;;;;;;-0.25;59.04;103317.56;4988487;28;20151;-70
2023/05/06 03:11:06;;;;;;;2.63;0.70;;;;;;;-0.26;59.10;103323.50;4992653;28;20074;-70
2023/05/06 03:13:33;;;;;;;7.60;1.10;;;;;;;-0.27;58.58;103319.13;4991053;28;20053;-70
2023/05/06 03:16:01;;;;;;;4.07;0.75;;;;;;;-0.26;59.11;103327.72;4990953;28;20046;-70
2023/05/06 03:18:28;;;;;;;3.17;0.70;;;;;;;-0.27;59.15;103323.38;4986253;28;20050;-70
2023/05/06 03:20:55;;;;;;;6.20;0.60;;;;;;;-0.27;58.77;103320.81;4990223;28;20804;-70
2023/05/06 03:23:24;;;;;;;5.25;0.80;;;;;;;-0.28;59.19;103327.63;4988808;28;20050;-70
2023/05/06 03:25:50;;;;;;;3.70;0.68;;;;;;;-0.31;59.44;103316.28;4988574;28;20069;-70
2023/05/06 03:28:17;;;;;;;2.10;0.90;;;;;;;-0.27;59.38;103324.28;4989941;28;20053;-70
2023/05/06 03:30:44;;;;;;;1.50;0.68;;;;;;;-0.26;59.28;103322.59;4990997;28;20050;-70
2023/05/06 03:33:11;;;;;;;6.32;2.35;;;;;;;-0.26;59.52;103323.50;4980985;28;20058;-70
2023/05/06 03:35:38;;;;;;;8.23;0.90;;;;;;;-0.25;59.66;103329.53;4987511;28;20571;-70
2023/05/06 03:38:05;;;;;;;2.03;0.60;;;;;;;-0.22;60.11;103331.41;4986844;28;20054;-70
2023/05/06 03:40:34;;;;;;;2.60;1.05;;;;;;;-0.22;59.51;103337.44;4990487;28;20088;-70
2023/05/06 03:43:01;;;;;;;3.67;0.73;;;;;;;-0.21;59.80;103330.59;4988334;28;20857;-70
2023/05/06 03:45:27;;;;;;;2.13;0.52;;;;;;;-0.20;59.79;103324.66;4987571;28;20054;-70
2023/05/06 03:47:54;;;;;;;1.00;0.50;;;;;;;-0.17;59.45;103335.16;4989372;28;20058;-70
2023/05/06 03:50:21;;;;;;;5.60;0.65;;;;;;;-0.16;59.38;103331.81;4985039;28;20080;-70
2023/05/06 03:52:48;;;;;;;2.63;0.73;;;;;;;-0.13;59.64;103338.03;4990648;28;20062;-70
2023/05/06 03:55:15;;;;;;;2.03;0.80;;;;;;;-0.11;60.32;103340.72;4988892;28;20058;-70
2023/05/06 03:57:43;;;;;;;4.53;0.80;;;;;;;-0.09;60.53;103333.97;4990484;28;20058;-70
2023/05/06 04:00:11;;;;;;;1.08;0.55;;;;;;;-0.06;60.64;103336.75;4988174;28;20058;-70
2023/05/06 04:02:38;;;;;;;4.85;0.70;;;;;;;-0.04;60.09;103343.78;4987647;28;21064;-70
2023/05/06 04:05:06;;;;;;;3.80;0.70;;;;;;;0.00;60.36;103342.31;4990518;28;20042;-70
2023/05/06 04:07:33;;;;;;;4.15;0.68;;;;;;;0.03;60.52;103339.94;4987609;28;20055;-70
2023/05/06 04:10:00;;;;;;;9.13;1.15;;;;;;;0.08;60.93;103340.22;4986189;28;20542;-70
2023/05/06 04:12:27;;;;;;;2.05;1.00;;;;;;;0.12;61.33;103337.97;4990248;28;20066;-70
2023/05/06 04:14:55;;;;;;;2.80;1.02;;;;;;;0.18;61.73;103343.50;4986279;28;20054;-70
2023/05/06 04:17:22;;;;;;;4.68;0.93;;;;;;;0.24;61.86;103340.44;4989626;28;20043;-70
2023/05/06 04:19:49;;;;;;;3.65;0.73;;;;;;;0.32;61.90;103351.25;4986873;28;20066;-69
2023/05/06 04:22:16;;;;;;;1.65;0.70;;;;;;;0.39;62.24;103345.69;4988411;28;20050;-70
2023/05/06 04:24:44;;;;;;;2.92;1.02;;;;;;;0.49;61.94;103342.03;4988236;28;20061;-70
2023/05/06 04:27:11;;;;;;;5.47;1.23;;;;;;;0.59;62.57;103349.53;4987472;28;20058;-70
2023/05/06 04:29:38;;;;;;;1.77;0.93;;;;;;;0.69;62.31;103346.78;4986880;28;20050;-69
2023/05/06 04:32:10;;;;;;;5.15;1.40;;;;;;;0.80;62.74;103347.44;4987104;28;20065;-70
2023/05/06 04:34:37;;;;;;;5.55;1.40;;;;;;;0.93;61.98;103344.81;4989431;28;20053;-70
2023/05/06 04:37:04;;;;;;;2.67;1.23;;;;;;;1.05;62.49;103342.13;4985490;28;20666;-70
2023/05/06 04:39:31;;;;;;;1.80;1.08;;;;;;;1.19;62.75;103346.44;4991418;28;20042;-69
2023/05/06 04:41:58;;;;;;;4.53;1.25;;;;;;;1.33;63.02;103342.13;4987199;28;20553;-70
2023/05/06 04:44:26;;;;;;;4.85;1.05;;;;;;;1.50;63.38;103345.72;4988593;28;20422;-70
2023/05/06 04:46:52;;;;;;;4.38;1.08;;;;;;;1.66;63.53;103343.25;4982453;28;20481;-69
2023/05/06 04:49:21;;;;;;;8.35;1.38;;;;;;;1.83;63.41;103339.09;4986987;28;20057;-70
2023/05/06 04:51:48;;;;;;;7.07;1.23;;;;;;;1.99;63.04;103338.28;4987716;28;20058;-70
2023/05/06 04:54:15;;;;;;;1.90;0.80;;;;;;;2.18;63.34;103340.25;4990038;28;20049;-70
2023/05/06 04:56:41;;;;;;;5.93;1.15;;;;;;;2.36;62.86;103345.56;4982800;28;20541;-70
2023/05/06 04:59:08;;;;;;;7.20;0.85;;;;;;;2.54;63.58;103336.28;4988642;28;20426;-70
2023/05/06 05:01:35;;;;;;;5.30;1.25;;;;;;;2.73;63.31;103339.84;4990941;28;20054;-69
2023/05/06 05:04:02;;;;;;;3.05;0.75;;;;;;;2.90;62.75;103340.00;4986592;28;20058;-70
2023/05/06 05:06:30;;;;;;;2.53;0.70;;;;;;;3.09;62.83;103330.63;4986401;28;20050;-70
2023/05/06 05:08:57;;;;;;;4.13;0.75;;;;;;;3.25;62.86;103333.22;4988512;28;20486;-70
2023/05/06 05:11:24;;;;;;;4.15;0.90;;;;;;;3.40;62.39;103334.84;4985499;28;20043;-70
2023/05/06 05:13:51;;;;;;;3.17;0.63;;;;;;;3.57;62.19;103337.47;4986384;28;20051;-70
2023/05/06 05:16:18;;;;;;;1.95;0.40;;;;;;;3.73;62.02;103333.09;4987167;28;20049;-70
2023/05/06 05:18:45;;;;;;;1.58;0.60;;;;;;;3.88;61.00;103339.03;4983808;28;20423;-70
2023/05/06 05:21:12;;;;;;;0.55;0.40;;;;;;;4.02;60.40;103337.16;4987597;28;20058;-69
2023/05/06 05:23:40;;;;;;;2.97;0.40;;;;;;;4.14;60.25;103336.88;4985914;28;20042;-69
2023/05/06 05:26:07;;;;;;;0.47;0.30;;;;;;;4.26;59.91;103337.44;4984843;28;20057;-70
2023/05/06 05:28:34;;;;;;;3.05;0.30;;;;;;;4.37;59.11;103340.56;4986155;28;20042;-70
2023/05/06 05:31:05;;;;;;;3.25;0.40;;;;;;;4.46;58.77;103336.72;4986360;28;20588;-70
2023/05/06 05:33:32;;;;;;;0.43;0.30;;;;;;;4.55;58.31;103341.44;4983901;28;20058;-69
2023/05/06 05:35:59;;;;;;;0.25;0.20;;;;;;;4.62;57.73;103346.09;4985466;28;20042;-70
2023/05/06 05:38:26;;;;;;;2.10;0.50;;;;;;;4.68;57.10;103340.31;4981609;28;21322;-70
2023/05/06 05:40:54;;;;;;;0.82;0.40;;;;;;;4.74;57.06;103349.25;4986064;28;20488;-70
2023/05/06 05:43:24;;;;;;;0.30;0.30;;;;;;;4.79;57.12;103346.00;4985779;28;20050;-70
2023/05/06 05:45:51;;;;;;;0.68;0.30;;;;;;;4.84;57.06;103357.44;4986299;28;20065;-70
2023/05/06 05:48:18;;;;;;;0.77;0.38;;;;;;;4.88;56.88;103346.44;4987494;28;20057;-70
2023/05/06 05:50:45;;;;;;;1.20;0.70;;;;;;;4.95;56.96;103340.69;4984614;28;20058;-70
2023/05/06 05:53:12;;;;;;;0.47;0.30;;;;;;;4.97;56.25;103346.84;4988433;28;20905;-70
2023/05/06 05:55:39;;;;;;;2.38;0.40;;;;;;;5.01;56.40;103346.19;4987117;28;20050;-70
2023/05/06 05:58:09;;;;;;;0.88;0.20;;;;;;;5.03;56.36;103347.13;4988520;28;20577;-70
2023/05/06 06:00:36;;;;;;;0.32;0.20;;;;;;;5.07;56.10;103353.34;4985172;28;20038;-70
2023/05/06 06:03:03;;;;;;;0.30;0.20;;;;;;;5.10;55.73;103343.13;4987433;28;20055;-70
2023/05/06 06:05:30;;;;;;;0.82;0.20;;;;;;;5.14;54.82;103351.09;4986033;28;20039;-70
2023/05/06 06:07:57;;;;;;;0.55;0.10;;;;;;;5.15;54.72;103351.97;4986179;28;20058;-70
2023/05/06 06:10:24;;;;;;;0.45;0.22;;;;;;;5.16;54.00;103354.66;4982895;28;20057;-70
2023/05/06 06:12:51;;;;;;;0.22;0.22;;;;;;;5.18;54.05;103355.59;4985644;28;20050;-70
2023/05/06 06:15:20;;;;;;;1.65;0.20;;;;;;;5.21;53.82;103351.34;4987655;28;20506;-70
2023/05/06 06:17:47;;;;;;;2.88;0.20;;;;;;;5.22;53.65;103351.44;4984099;28;20054;-70
2023/05/06 06:20:14;;;;;;;0.10;0.10;;;;;;;5.25;53.49;103353.28;4985287;28;20908;-70
2023/05/06 06:22:41;;;;;;;0.30;0.20;;;;;;;5.27;53.23;103349.06;4980388;28;20047;-70
2023/05/06 06:25:08;;;;;;;0.73;0.10;;;;;;;5.29;52.41;103344.81;4984897;28;20060;-70
2023/05/06 06:27:35;;;;;;;0.88;0.20;;;;;;;5.31;52.30;103348.38;4986685;28;20050;-70
2023/05/06 06:30:02;;;;;;;0.08;0.03;;;;;;;5.32;51.56;103345.88;4985728;28;20050;-70
2023/05/06 06:32:31;;;;;;;0.65;0.20;;;;;;;5.34;51.84;103343.31;4987125;28;20053;-70
2023/05/06 06:34:57;;;;;;;0.68;0.20;;;;;;;5.34;51.50;103335.56;4983522;28;20050;-71
2023/05/06 06:37:24;;;;;;;1.40;0.20;;;;;;;5.35;50.90;103335.63;4987867;28;20061;-70
2023/05/06 06:39:51;;;;;;;1.50;0.20;;;;;;;5.38;50.83;103340.06;4985957;28;20061;-70
2023/05/06 06:42:18;;;;;;;0.20;0.10;;;;;;;5.40;50.66;103344.47;4992758;28;20050;-70
2023/05/06 06:44:45;;;;;;;0.17;0.17;;;;;;;5.42;50.95;103347.16;4989371;28;20057;-70
2023/05/06 06:47:12;;;;;;;0.52;0.20;;;;;;;5.47;50.89;103344.75;4993037;28;20051;-70
2023/05/06 06:49:40;;;;;;;0.65;0.10;;;;;;;5.50;50.29;103343.19;4986096;28;20042;-70
2023/05/06 06:52:07;;;;;;;0.20;0.10;;;;;;;5.54;49.15;103336.41;4996968;28;20057;-69
2023/05/06 06:54:34;;;;;;;0.30;0.10;;;;;;;5.57;48.76;103340.03;4991046;28;20042;-70
2023/05/06 06:57:01;;;;;;;0.40;0.20;;;;;;;5.58;48.61;103328.84;4995072;28;20050;-70
2023/05/06 06:59:28;;;;;;;0.63;0.20;;;;;;;5.67;48.56;103340.44;4990570;28;20039;-69
2023/05/06 07:01:55;;;;;;;0.60;0.10;;;;;;;5.72;48.71;103334.63;4988213;28;20043;-69
2023/05/06 07:04:23;;;;;;;0.70;0.20;;;;;;;5.82;48.37;103343.69;4989313;28;20052;-69
2023/05/06 07:06:51;;;;;;;0.32;0.20;;;;;;;5.89;48.59;103335.34;4991505;28;20050;-69
2023/05/06 07:09:18;;;;;;;0.10;0.10;;;;;;;6.02;47.96;103341.94;4991548;28;20051;-69
2023/05/06 07:11:45;;;;;;;0.40;0.20;;;;;;;6.14;48.33;103338.97;4989750;28;20918;-69
2023/05/06 07:14:13;;;;;;;1.15;0.10;;;;;;;6.26;48.32;103342.06;4989737;28;20770;-69
2023/05/06 07:16:39;;;;;;;0.15;0.10;;;;;;;6.39;48.45;103333.94;4990029;28;20053;-69
2023/05/06 07:19:06;;;;;;;0.40;0.20;;;;;;;6.54;48.05;103344.03;4991367;28;20054;-69
2023/05/06 07:21:34;;;;;;;0.20;0.10;;;;;;;6.68;48.22;103342.00;4990607;28;20502;-68
2023/05/06 07:24:03;;;;;;;0.73;0.20;;;;;;;6.80;47.48;103347.66;4991909;28;20042;-69
2023/05/06 07:26:30;;;;;;;0.40;0.10;;;;;;;6.93;47.86;103341.22;4990125;28;20137;-69
2023/05/06 07:28:57;;;;;;;0.75;0.17;;;;;;;7.08;47.49;103340.91;4991017;28;20064;-69
2023/05/06 07:31:24;;;;;;;0.38;0.15;;;;;;;7.25;47.37;103342.41;4984846;28;20050;-69
2023/05/06 07:33:51;;;;;;;1.02;0.10;;;;;;;7.40;47.32;103345.56;4993257;28;20505;-69
2023/05/06 07:36:18;;;;;;;0.10;0.10;;;;;;;7.54;46.51;103346.06;4987531;28;20050;-69
2023/05/06 07:38:44;;;;;;;0.17;0.10;;;;;;;7.64;46.62;103337.75;4992990;28;20057;-70
2023/05/06 07:41:13;;;;;;;0.32;0.10;;;;;;;7.79;45.82;103344.31;4986923;28;20050;-70
2023/05/06 07:43:40;;;;;;;0.25;0.20;;;;;;;7.92;45.95;103338.69;4987010;28;20049;-69
2023/05/06 07:46:07;;;;;;;0.28;0.20;;;;;;;8.08;46.10;103342.66;4985242;28;20046;-69
2023/05/06 07:48:34;;;;;;;0.30;0.20;;;;;;;8.21;45.56;103339.66;4991192;28;20042;-70
2023/05/06 07:51:01;;;;;;;0.10;0.10;;;;;;;8.36;45.59;103340.97;4983362;28;20077;-69
2023/05/06 07:53:28;;;;;;;0.20;0.10;;;;;;;8.51;45.05;103331.97;4988314;28;20054;-70
2023/05/06 07:56:00;;;;;;;1.27;0.20;;;;;;;8.64;44.52;103330.59;4984962;28;20578;-69
2023/05/06 07:58:28;;;;;;;0.60;0.20;;;;;;;8.74;43.82;103332.66;4988925;28;20056;-70
2023/05/06 08:00:55;;;;;;;0.85;0.20;;;;;;;8.81;43.21;103332.84;4985864;28;20539;-70
2023/05/06 08:03:22;;;;;;;1.30;0.30;;;;;;;8.88;43.01;103322.66;4988760;28;20046;-70
2023/05/06 08:05:50;;;;;;;2.92;0.20;;;;;;;8.97;42.80;103322.03;4990137;28;20065;-70
2023/05/06 08:08:17;;;;;;;2.28;0.30;;;;;;;9.06;43.46;103322.28;4986704;28;20061;-70
2023/05/06 08:10:44;;;;;;;0.47;0.20;;;;;;;9.11;41.95;103320.72;4989290;28;20056;-70
2023/05/06 08:13:11;;;;;;;1.45;0.20;;;;;;;9.17;42.71;103325.22;4985731;28;20442;-69
2023/05/06 08:15:39;;;;;;;4.97;0.47;;;;;;;9.20;42.08;103325.28;4990746;28;20054;-69
2023/05/06 08:18:07;;;;;;;3.17;0.32;;;;;;;9.22;42.36;103324.50;4987786;28;20052;-70
2023/05/06 08:20:33;;;;;;;0.70;0.30;;;;;;;9.26;41.99;103324.59;4990043;28;20038;-70
2023/05/06 08:23:00;;;;;;;0.57;0.35;;;;;;;9.29;42.30;103322.94;4985285;28;20522;-70
2023/05/06 08:25:27;;;;;;;0.73;0.20;;;;;;;9.33;42.47;103321.28;4987117;28;20050;-70
2023/05/06 08:27:55;;;;;;;0.40;0.20;;;;;;;9.36;41.96;103322.28;4979256;28;20055;-70
2023/05/06 08:30:22;;;;;;;2.03;0.20;;;;;;;9.38;41.12;103311.88;4989203;28;20046;-71
2023/05/06 08:32:50;;;;;;;0.77;0.20;;;;;;;9.36;41.02;103321.38;4983076;28;20046;-70
2023/05/06 08:35:17;;;;;;;2.78;0.20;;;;;;;9.35;41.57;103314.41;4987007;28;20053;-70
2023/05/06 08:37:44;;;;;;;3.33;0.20;;;;;;;9.34;41.49;103320.47;4983666;28;20046;-70
2023/05/06 08:40:18;;;;;;;0.20;0.20;;;;;;;9.36;41.81;103317.06;4986326;28;20050;-70
2023/05/06 08:42:46;;;;;;;1.00;0.20;;;;;;;9.40;41.70;103320.63;4957029;28;20065;-71
2023/05/06 08:45:13;;;;;;;0.90;0.10;;;;;;;9.41;41.43;103312.81;4983416;28;20050;-72
2023/05/06 08:47:41;;;;;;;0.43;0.20;;;;;;;9.41;41.06;103307.63;4984720;28;20049;-72
2023/05/06 08:50:11;;;;;;;0.32;0.10;;;;;;;9.38;40.38;103312.75;4986588;28;20058;-73
2023/05/06 08:52:39;;;;;;;0.20;0.10;;;;;;;9.34;40.63;103310.91;4983844;28;20054;-70
2023/05/06 08:55:07;;;;;;;0.10;0.10;;;;;;;9.36;40.76;103314.47;4985536;28;20050;-73
2023/05/06 08:57:35;;;;;;;0.30;0.13;;;;;;;9.38;40.74;103304.03;4983813;28;20053;-73
2023/05/06 09:00:03;;;;;;;0.20;0.20;;;;;;;9.41;40.24;103304.13;4984291;28;20042;-73
2023/05/06 09:02:30;;;;;;;0.50;0.20;;;;;;;9.44;40.11;103304.19;4984288;28;20133;-73
2023/05/06 09:04:57;;;;;;;2.30;0.15;;;;;;;9.44;40.21;103299.00;4981535;28;20077;-73
2023/05/06 09:07:25;;;;;;;0.52;0.17;;;;;;;9.47;40.09;103301.66;4983581;28;20058;-73
2023/05/06 09:09:52;;;;;;;0.28;0.10;;;;;;;9.51;40.38;103305.28;4984218;28;20062;-73
2023/05/06 09:12:19;;;;;;;0.65;0.10;;;;;;;9.52;39.75;103294.84;4983169;28;20592;-73
2023/05/06 09:14:50;;;;;;;1.25;0.10;;;;;;;9.53;40.15;103299.22;4984148;28;20620;-72
2023/05/06 09:17:22;;;;;;;0.30;0.08;;;;;;;9.51;39.41;103302.66;4980706;28;20050;-72
2023/05/06 09:19:51;;;;;;;0.20;0.20;;;;;;;9.45;39.40;103301.66;4985279;28;20136;-73
2023/05/06 09:22:21;;;;;;;1.15;0.15;;;;;;;9.48;39.39;103308.69;4982679;28;20538;-72
2023/05/06 09:24:55;;;;;;;0.28;0.10;;;;;;;9.49;39.91;103302.59;4985280;28;20047;-72
2023/05/06 09:27:23;;;;;;;0.10;0.10;;;;;;;9.50;39.26;103301.75;4984767;28;20574;-72
2023/05/06 09:30:00;;;;;;;0.20;0.10;;;;;;;9.52;39.70;103302.69;4980877;28;20058;-72
2023/05/06 09:32:27;;;;;;;0.05;0.00;;;;;;;9.51;38.70;103305.28;4982751;28;20398;-73
2023/05/06 09:34:54;;;;;;;0.20;0.10;;;;;;;9.46;38.08;103305.13;4982301;28;20057;-72
2023/05/06 09:37:21;;;;;;;0.20;0.10;;;;;;;9.42;38.79;103311.09;4984758;28;20129;-74
2023/05/06 09:39:53;;;;;;;0.65;0.10;;;;;;;9.40;38.42;103300.63;4979806;28;20518;-74
2023/05/06 09:42:22;;;;;;;0.60;0.30;;;;;;;9.40;38.25;103297.16;4981860;28;20073;-73
2023/05/06 09:44:50;;;;;;;0.70;0.20;;;;;;;9.41;38.38;103296.31;4985146;28;20065;-72
2023/05/06 09:47:17;;;;;;;2.50;0.13;;;;;;;9.38;38.28;103294.50;4984756;28;20422;-73
2023/05/06 09:49:44;;;;;;;0.93;0.52;;;;;;;9.39;38.46;103290.16;4979746;28;20565;-73
2023/05/06 09:52:12;;;;;;;0.63;0.13;;;;;;;9.36;38.69;103288.38;4984079;28;20521;-73
2023/05/06 09:54:40;;;;;;;0.40;0.10;;;;;;;9.26;38.92;103277.63;4984030;28;20411;-73
2023/05/06 09:57:09;;;;;;;0.35;0.10;;;;;;;9.28;39.00;103281.16;4983422;28;20051;-73
2023/05/06 09:59:36;;;;;;;0.40;0.20;;;;;;;9.29;38.94;103290.75;4983908;28;20049;-73
2023/05/06 10:02:05;;;;;;;0.17;0.10;;;;;;;9.29;38.99;103289.03;4980764;28;20819;-71
2023/05/06 10:04:36;;;;;;;0.63;0.10;;;;;;;9.28;38.49;103278.53;4985634;28;20050;-72
2023/05/06 10:07:03;;;;;;;0.30;0.20;;;;;;;9.26;38.75;103282.84;4983121;28;20105;-72
2023/05/06 10:09:31;;;;;;;0.77;0.10;;;;;;;9.20;38.22;103276.63;4983741;28;20082;-73
2023/05/06 10:11:59;;;;;;;1.45;0.20;;;;;;;9.19;38.51;103269.66;4983358;28;20054;-73
2023/05/06 10:14:27;;;;;;;1.75;0.20;;;;;;;9.19;38.49;103267.03;4984019;28;20061;-73
2023/05/06 10:16:55;;;;;;;0.70;0.20;;;;;;;9.20;38.85;103270.53;4983255;28;20791;-73
2023/05/06 10:19:25;;;;;;;0.35;0.20;;;;;;;9.18;39.00;103264.38;4982546;28;20046;-73
2023/05/06 10:21:57;;;;;;;0.25;0.10;;;;;;;9.19;39.51;103266.13;4983687;28;20042;-72
2023/05/06 10:24:32;;;;;;;2.35;0.20;;;;;;;9.15;39.28;103254.75;4985642;28;20578;-73
2023/05/06 10:27:03;;;;;;;0.40;0.15;;;;;;;9.11;38.54;103259.84;4983328;28;20109;-73
2023/05/06 10:29:35;;;;;;;0.15;0.10;;;;;;;9.06;38.93;103251.91;4982165;28;20046;-73
2023/05/06 10:32:03;;;;;;;0.17;0.10;;;;;;;9.03;39.00;103251.81;4982486;28;20144;-72
2023/05/06 10:34:37;;;;;;;0.10;0.10;;;;;;;9.01;39.03;103243.06;4983452;28;20054;-73
2023/05/06 10:37:05;;;;;;;0.40;0.10;;;;;;;8.97;39.38;103243.84;4984410;28;20050;-73
2023/05/06 10:39:33;;;;;;;0.10;0.10;;;;;;;8.95;39.26;103240.28;4982494;28;20050;-72
2023/05/06 10:42:00;;;;;;;0.10;0.10;;;;;;;8.90;39.04;103240.16;4986854;28;20061;-72
2023/05/06 10:45:02;;;;;;;0.28;0.13;;;;;;;8.88;39.09;103234.03;4986420;28;20141;-72
2023/05/06 10:47:49;;;;;;;0.17;0.10;;;;;;;8.84;39.69;103236.50;4985252;28;20054;-72
2023/05/06 10:50:21;;;;;;;0.40;0.20;;;;;;;8.81;39.80;103232.06;4984597;28;20815;-72
2023/05/06 10:52:50;;;;;;;0.17;0.10;;;;;;;8.77;39.28;103231.13;4981901;28;20054;-72
2023/05/06 10:55:29;;;;;;;0.95;0.10;;;;;;;8.73;39.50;103226.63;4984370;28;20046;-73
2023/05/06 10:57:57;;;;;;;0.30;0.20;;;;;;;8.71;39.33;103224.84;4984432;28;20050;-72
2023/05/06 11:00:25;;;;;;;0.35;0.20;;;;;;;8.68;40.16;103220.44;4985618;28;20061;-72
2023/05/06 11:02:57;;;;;;;0.38;0.20;;;;;;;8.67;40.04;103223.88;4984415;28;20050;-72
2023/05/06 11:05:25;;;;;;;0.52;0.10;;;;;;;8.64;39.93;103218.56;4982202;28;20058;-72
2023/05/06 11:07:52;;;;;;;0.13;0.10;;;;;;;8.61;40.07;103225.41;4983257;28;20696;-72
2023/05/06 11:10:33;;;;;;;0.77;0.30;;;;;;;8.59;39.89;103221.88;4984559;28;20058;-72
2023/05/06 11:13:19;;;;;;;0.70;0.10;;;;;;;8.56;40.54;103215.72;4982946;28;20077;-72
2023/05/06 11:15:49;;;;;;;0.65;0.50;;;;;;;8.54;40.46;103217.44;4984110;28;20129;-72
2023/05/06 11:18:41;;;;;;;0.30;0.20;;;;;;;8.53;40.45;103222.59;4983211;28;20795;-72
2023/05/06 11:21:37;;;;;;;0.30;0.13;;;;;;;8.50;40.73;103212.94;4983001;28;20052;-72
2023/05/06 11:24:11;;;;;;;0.77;0.20;;;;;;;8.46;40.63;103210.22;4986789;28;20414;-72
2023/05/06 11:26:41;;;;;;;0.28;0.10;;;;;;;8.44;40.84;103210.16;4987204;28;20483;-71
2023/05/06 11:29:08;;;;;;;0.63;0.13;;;;;;;8.41;40.45;103204.88;4989319;28;20058;-71
2023/05/06 11:31:44;;;;;;;0.38;0.25;;;;;;;8.40;40.92;103212.66;4987162;28;20596;-72
2023/05/06 11:34:14;;;;;;;0.20;0.10;;;;;;;8.36;40.94;103211.63;4984651;28;20050;-72
2023/05/06 11:36:49;;;;;;;2.22;0.10;;;;;;;8.31;40.81;103201.09;4986107;28;20057;-72